Terminal Aerodrome Forecast
Issued by NWS

Home | Current Version | Previous Version | Graphics & Text | Print | Product List | Glossary On
Versions: 1 2 3 4 5 6 7 8 9 10 11 12 13
100
FTUS43 KICT 071732
TAFRSL
TAF
KRSL 071732Z 0718/0818 31016G23KT P6SM SCT080 BKN120
     FM072000 31024G34KT P6SM SCT120
     FM080100 31018G27KT P6SM SCT250
     FM081600 33022G31KT P6SM FEW250=

USA.gov is the U.S. government's official web portal to all federal, state and local government web resources and services.